• Join FlightAware (Why Join?)
  • Login
  • US Flag 
10:54PM EDT


 

Airport Tracker/Info


-or-


 

Live Flight TrackerFlight Track Log ✈ BOE1 ✈ 04-Mar-2010 ✈ KMWH - KBFI

Flight Track Log - Related Links

Times and Time Zones

All times are in EST time to prevent confusion due to time zone crossing. See the BOE1 flight status page for this flight to view local times or setup timezone preferences in your user account.

Time Position Orientation Groundspeed Altitude Reporting Facility
EST Latitude Longitude Course Direction KTS MPH feet Rate Location/Type
05:53PM 47.2517 -119.3640 337° Northwest 189 217 3,600  Level Seattle Center
05:54PM 47.2600 -119.3790 342° North 14,000 7,680 Climbing Seattle Center
05:55PM 47.3225 -119.4090 352° North 212 244 14,000 -1,800 Level Seattle Center
05:56PM 47.3914 -119.4240 24° Northeast 229 264 10,500 -300 Descending Seattle Center
05:57PM 47.4597 -119.3780 22° Northeast 235 270 13,400 2,220 Climbing Seattle Center
05:58PM 47.5344 -119.3340 19° North 258 297 15,000 780 Climbing Seattle Center
05:59PM 47.6136 -119.2940 21° North 281 323 15,000  Level Seattle Center
06:00PM 47.6903 -119.2500 21° North 293 337 15,000  Level Seattle Center
06:01PM 47.7711 -119.2030 22° Northeast 293 337 15,000 -60 Level Seattle Center
06:02PM 47.8500 -119.1560 21° North 298 343 14,900  Descending Seattle Center
06:03PM 47.9289 -119.1110 33° Northeast 298 343 15,000 -60 Climbing Seattle Center
06:04PM 48.0011 -119.0420 105° East 304 350 14,800 -240 Descending Seattle Center
06:05PM 47.9794 -118.9250 116° Southeast 235 270 14,600  Descending Seattle Center
06:06PM 47.9411 -118.8080 103° East 258 297 14,800 60 Climbing Seattle Center
06:07PM 47.9214 -118.6780 97° East 285 328 14,800  Level Seattle Center
06:08PM 47.9117 -118.5520 92° East 301 346 14,800  Level Seattle Center
06:09PM 47.9083 -118.4220 94° East 311 358 14,800 -60 Level Seattle Center
06:10PM 47.9025 -118.2950 94° East 311 358 14,700 -120 Descending Seattle Center
06:11PM 47.8967 -118.1650 97° East 311 358 14,600 -60 Descending Seattle Center
06:12PM 47.8867 -118.0390 98° East 311 358 14,600 180 Level Seattle Center
06:13PM 47.8744 -117.9160 99° East 311 358 15,000 180 Climbing Seattle Center
06:14PM 47.8597 -117.7830 99° East 306 352 15,000  Level Seattle Center
06:15PM 47.8447 -117.6420 101° East 325 374 15,100 -60 Climbing Seattle Center
06:16PM 47.8275 -117.5060 99° East 338 389 14,900 -60 Descending Seattle Center
06:17PM 47.8122 -117.3620 98° East 343 395 15,000  Climbing Seattle Center
06:18PM 47.7989 -117.2170 102° East 349 402 14,900  Descending Seattle Center
06:19PM 47.7789 -117.0760 163° South 349 402 15,000 -180 Climbing Seattle Center
06:20PM 47.6992 -117.0400 252° West 269 310 14,600 -60 Descending Seattle Center
06:21PM 47.6728 -117.1620 287° West 158 182 14,900 180 Climbing Seattle Center
06:22PM 47.7028 -117.3050 289° West 236 272 15,000 120 Climbing Seattle Center
06:23PM 47.7369 -117.4490 291° West 308 354 15,200 120 Climbing Seattle Center
06:24PM 47.7731 -117.5890 295° West 340 391 15,300  Climbing Seattle Center
06:25PM 47.8150 -117.7260 290° West 359 413 15,200 -120 Descending Seattle Center
06:26PM 47.8508 -117.8700 287° West 370 426 15,100  Descending Seattle Center
06:27PM 47.8800 -118.0140 287° West 365 420 15,300 -60 Climbing Seattle Center
06:28PM 47.9092 -118.1590 276° West 360 414 15,000 -240 Descending Seattle Center
06:29PM 47.9194 -118.3070 278° West 360 414 14,900 -60 Descending Seattle Center
06:30PM 47.9336 -118.4550 280° West 360 414 14,900  Level Seattle Center
06:31PM 47.9497 -118.5970 277° West 360 414 14,900  Level Seattle Center
06:32PM 47.9617 -118.7520 276° West 371 427 14,900  Level Seattle Center
06:33PM 47.9733 -118.9160 275° West 387 445 15,000  Climbing Seattle Center
06:34PM 47.9828 -119.0820 277° West 399 459 14,900 -60 Descending Seattle Center
06:35PM 47.9961 -119.2440 274° West 404 465 14,900 -60 Level Seattle Center
06:36PM 48.0028 -119.4080 275° West 404 465 14,800  Descending Seattle Center
06:37PM 48.0117 -119.5690 274° West 404 465 14,900  Climbing Seattle Center
06:38PM 48.0200 -119.7420 271° West 409 471 14,900 -60 Level Seattle Center
06:39PM 48.0222 -119.9220 277° West 427 491 14,800 -180 Descending Seattle Center
06:40PM 48.0364 -120.0960 274° West 427 491 14,600 -240 Descending Seattle Center
06:41PM 48.0442 -120.2760 271° West 427 491 14,400 240 Descending Seattle Center
06:42PM 48.0472 -120.4560 272° West 432 497 15,100 360 Climbing Seattle Center
06:43PM 48.0503 -120.6350 278° West 432 497 15,200 -60 Climbing Seattle Center
06:44PM 48.0678 -120.8120 276° West 437 503 15,000  Descending Seattle Center
06:45PM 48.0786 -120.9740 281° West 444 511 15,300 300 Climbing Seattle Center
06:46PM 48.1017 -121.1480 231° Southwest 444 511 15,700 -60 Climbing Seattle Center
06:47PM 48.0381 -121.2650 128° Southeast 381 438 15,200 -300 Descending Seattle Center
06:48PM 47.9728 -121.1390 88° East 196 226 15,200  Level Seattle Center
06:49PM 47.9769 -120.9530 91° East 230 265 15,200  Level Seattle Center
06:50PM 47.9747 -120.7460 90° East 369 425 15,300  Climbing Seattle Center
06:51PM 47.9739 -120.5690 88° East 412 474 15,300  Level Seattle Center
06:52PM 47.9792 -120.3800 95° East 430 495 15,400  Climbing Seattle Center
06:53PM 47.9694 -120.2010 92° East 435 501 15,400 -60 Level Seattle Center
06:54PM 47.9658 -120.0210 91° East 437 503 15,300 -120 Descending Seattle Center
06:55PM 47.9639 -119.8380 93° East 437 503 15,200 -60 Descending Seattle Center
06:56PM 47.9578 -119.6560 93° East 437 503 15,200 -60 Level Seattle Center
06:57PM 47.9511 -119.4730 93° East 437 503 15,100 -60 Descending Seattle Center
06:58PM 47.9442 -119.2870 92° East 437 503 15,100  Level Seattle Center
06:59PM 47.9392 -119.1050 94° East 442 509 15,100 60 Level Seattle Center
07:00PM 47.9297 -118.9190 95° East 442 509 15,300 60 Climbing Seattle Center
07:01PM 47.9197 -118.7370 97° East 442 509 15,300 -120 Level Seattle Center
07:02PM 47.9056 -118.5580 99° East 442 509 15,100  Descending Seattle Center
07:03PM 47.8869 -118.3760 101° East 442 509 15,300 -120 Climbing Seattle Center
07:04PM 47.8639 -118.1970 80° East 442 509 14,900 -60 Descending Seattle Center
07:05PM 47.8844 -118.0300 79° East 433 498 15,200 120 Climbing Seattle Center
07:06PM 47.9122 -117.8210 96° East 423 487 15,300  Climbing Seattle Center
07:07PM 47.8961 -117.6090 96° East 428 493 15,300  Level Seattle Center
07:08PM 47.8822 -117.4270 98° East 428 493 15,300  Level Seattle Center
07:09PM 47.8639 -117.2420 99° East 438 504 15,300 -60 Level Seattle Center
07:10PM 47.8453 -117.0640 99° East 443 510 15,200  Descending Seattle Center
07:11PM 47.8264 -116.8820 98° East 443 510 15,300  Climbing Seattle Center
07:12PM 47.8094 -116.7040 98° East 443 510 15,300  Level Seattle Center
07:13PM 47.7919 -116.5200 98° East 443 510 15,300  Level Seattle Center
07:14PM 47.7744 -116.3390 98° East 443 510 15,300  Level Seattle Center
07:15PM 47.7592 -116.1760 114° Southeast 443 510 15,300  Level Seattle Center
07:16PM 47.7125 -116.0190 215° Southwest 443 510 15,300 -120 Level Seattle Center
07:17PM 47.6281 -116.1080 280° West 263 303 15,100 -180 Descending Seattle Center
07:18PM 47.6503 -116.2910 284° West 220 253 15,000 -60 Descending Seattle Center
07:19PM 47.6803 -116.4650 284° West 319 367 15,000  Level Seattle Center
07:20PM 47.7125 -116.6610 282° West 414 476 15,000  Level Seattle Center
07:21PM 47.7378 -116.8350 284° West 432 497 15,000  Level Seattle Center
07:22PM 47.7669 -117.0060 283° West 432 497 15,000  Level Seattle Center
07:23PM 47.7939 -117.1840 283° West 432 497 15,000  Level Seattle Center
07:24PM 47.8206 -117.3580 280° West 437 503 15,000  Level Seattle Center
07:25PM 47.8406 -117.5340 278° West 437 503 15,000  Level Seattle Center
07:26PM 47.8583 -117.7120 278° West 437 503 15,000  Level Seattle Center
07:27PM 47.8758 -117.8880 279° West 437 503 15,000  Level Seattle Center
07:28PM 47.8933 -118.0630 278° West 437 503 15,000  Level Seattle Center
07:29PM 47.9103 -118.2390 279° West 437 503 15,000  Level Seattle Center
07:30PM 47.9289 -118.4150 279° West 432 497 15,000  Level Seattle Center
07:31PM 47.9475 -118.5910 280° West 432 497 15,000  Level Seattle Center
07:32PM 47.9678 -118.7640 278° West 432 497 15,000  Level Seattle Center
07:33PM 47.9839 -118.9370 274° West 427 491 15,000  Level Seattle Center
07:34PM 47.9911 -119.1100 273° West 427 491 15,000  Level Seattle Center
07:35PM 47.9983 -119.2900 274° West 427 491 15,000  Level Seattle Center
07:36PM 48.0072 -119.4670 274° West 427 491 15,000  Level Seattle Center
07:37PM 48.0158 -119.6430 275° West 427 491 15,000  Level Seattle Center
07:38PM 48.0264 -119.8260 274° West 427 491 15,000  Level Seattle Center
07:39PM 48.0344 -120.0030 274° West 432 497 15,000  Level Seattle Center
07:40PM 48.0422 -120.1790 274° West 437 503 15,000  Level Seattle Center
07:41PM 48.0500 -120.3630 273° West 442 509 15,000  Level Seattle Center
07:42PM 48.0572 -120.5430 275° West 442 509 15,000  Level Seattle Center
07:43PM 48.0683 -120.7190 275° West 442 509 15,000  Level Seattle Center
07:44PM 48.0794 -120.9000 276° West 442 509 15,100  Climbing Seattle Center
07:45PM 48.0922 -121.0800 275° West 442 509 15,100  Level Seattle Center
07:46PM 48.1025 -121.2570 275° West 442 509 15,100  Level Seattle Center
07:47PM 48.1128 -121.4340 305° West 442 509 15,100  Level Seattle Center
07:48PM 48.1753 -121.5670 50° Northeast 389 448 15,100 -120 Level Seattle Center
07:49PM 48.2458 -121.4390 127° Southeast 200 230 14,900 60 Descending Seattle Center
07:50PM 48.1708 -121.2900 131° Southeast 226 260 15,300 120 Climbing Seattle Center
07:51PM 48.0914 -121.1510 123° Southeast 353 406 15,200 -120 Descending Seattle Center
07:52PM 48.0244 -120.9980 117° Southeast 389 448 15,100 -120 Descending Seattle Center
07:53PM 47.9678 -120.8320 108° East 433 498 15,000 -60 Descending Seattle Center
07:54PM 47.9294 -120.6610 109° East 433 498 15,000 120 Level Seattle Center
07:55PM 47.8892 -120.4910 111° Southeast 438 504 15,300 120 Climbing Seattle Center
07:56PM 47.8442 -120.3200 75° East 438 504 15,300 -120 Level Seattle Center
07:57PM 47.8761 -120.1470 72° East 415 478 15,100 -120 Descending Seattle Center
07:58PM 47.9119 -119.9780 105° East 415 478 15,100 -60 Level Seattle Center
07:59PM 47.8828 -119.8140 97° East 395 455 15,000 -120 Descending Seattle Center
08:00PM 47.8683 -119.6470 114° Southeast 403 464 14,900 -60 Descending Seattle Center
08:01PM 47.8222 -119.4960 83° East 395 455 14,900 60 Level Seattle Center
08:02PM 47.8361 -119.3160 83° East 411 473 15,100 60 Climbing Seattle Center
08:03PM 47.8519 -119.1340 83° East 423 487 15,100 -60 Level Seattle Center
08:04PM 47.8675 -118.9450 83° East 445 512 15,000 -60 Descending Seattle Center
08:05PM 47.8825 -118.7590 81° East 450 518 15,000 -120 Level Seattle Center
08:06PM 47.9017 -118.5760 83° East 450 518 14,800 -60 Descending Seattle Center
08:07PM 47.9183 -118.3840 80° East 455 524 14,900  Climbing Seattle Center
08:08PM 47.9408 -118.1950 88° East 455 524 14,900 -60 Level Seattle Center
08:09PM 47.9464 -117.9970 90° East 466 536 14,800 -120 Descending Seattle Center
08:10PM 47.9453 -117.8020 90° East 466 536 14,700 -120 Descending Seattle Center
08:11PM 47.9461 -117.6070 92° East 466 536 14,600 180 Descending Seattle Center
08:12PM 47.9422 -117.4090 93° East 466 536 15,100 120 Climbing Seattle Center
08:13PM 47.9361 -117.2110 95° East 473 544 14,900 -60 Descending Seattle Center
08:14PM 47.9253 -117.0100 99° East 478 550 15,000  Climbing Seattle Center
08:15PM 47.9061 -116.8260 147° Southeast 467 537 14,900 -180 Descending Seattle Center
08:16PM 47.8294 -116.7530 272° West 327 376 14,700 120 Descending Seattle Center
08:17PM 47.8333 -116.9100 287° West 132 152 15,200 120 Climbing Seattle Center
08:18PM 47.8686 -117.0870 289° West 282 325 15,000 -180 Descending Seattle Center
08:19PM 47.9100 -117.2620 289° West 355 409 14,900 300 Descending Seattle Center
08:20PM 47.9489 -117.4330 273° West 419 482 15,700 60 Climbing Seattle Center
08:21PM 47.9544 -117.6190 274° West 438 504 15,100 -180 Descending Seattle Center
08:22PM 47.9619 -117.8040 273° West 448 516 15,400  Climbing Seattle Center
08:23PM 47.9692 -117.9900 274° West 448 516 15,100 -300 Descending Seattle Center
08:24PM 47.9781 -118.1810 277° West 454 522 14,800 -60 Descending Seattle Center
08:25PM 47.9931 -118.3730 276° West 459 528 15,000  Climbing Seattle Center
08:26PM 48.0056 -118.5650 277° West 464 534 14,900 -180 Descending Seattle Center
08:27PM 48.0219 -118.7570 281° West 464 534 14,700 420 Descending Seattle Center
08:28PM 48.0464 -118.9480 278° West 469 540 15,800 600 Climbing Seattle Center
08:29PM 48.0619 -119.1250 275° West 451 519 16,000 -360 Climbing Seattle Center
08:30PM 48.0711 -119.2800 280° West 418 481 15,100 -600 Descending Seattle Center
08:31PM 48.0861 -119.4040 276° West 360 414 14,900 -60 Descending Seattle Center
08:32PM 48.0947 -119.5280 281° West 321 369 15,000  Climbing Seattle Center
08:33PM 48.1117 -119.6650 277° West 316 364 15,000 -60 Level Seattle Center
08:34PM 48.1219 -119.7950 275° West 316 364 14,900  Descending Seattle Center
08:35PM 48.1303 -119.9290 281° West 316 364 15,100  Climbing Seattle Center
08:36PM 48.1467 -120.0620 303° West 321 369 14,900 60 Descending Seattle Center
08:37PM 48.1961 -120.1770 318° Northwest 324 373 15,300 420 Climbing Seattle Center
08:38PM 48.2667 -120.2740 256° West 330 380 15,800 300 Climbing Seattle Center
08:39PM 48.2453 -120.3990 230° Southwest 288 331 15,900 120 Climbing Seattle Center
08:40PM 48.1822 -120.5130 229° Southwest 294 338 16,100  Climbing Seattle Center
08:41PM 48.1147 -120.6300 233° Southwest 339 390 16,000 -120 Descending Seattle Center
08:42PM 48.0536 -120.7500 235° Southwest 359 413 15,900 -60 Descending Seattle Center
08:43PM 48.0006 -120.8610 235° Southwest 364 419 15,900 120 Level Seattle Center
08:44PM 47.9475 -120.9740 239° Southwest 364 419 16,200 120 Climbing Seattle Center
08:45PM 47.9006 -121.0910 237° Southwest 342 394 16,200 -180 Level Seattle Center
08:46PM 47.8558 -121.1950 239° Southwest 325 374 15,900 -540 Descending Seattle Center
08:46PM 47.8364 -121.2440 238° Southwest 302 348 15,500 -900 Descending Seattle Center
08:47PM 47.8300 -121.2590 300° West 299 344 15,400 -1,080 Descending Seattle Center
08:47PM 47.8481 -121.3060 290° West 285 328 14,800 -1,560 Descending Seattle Center
08:48PM 47.8658 -121.3780 277° West 305 351 13,900 -1,320 Descending Seattle Center
08:48PM 47.8694 -121.4210 273° West 269 310 13,500 -1,320 Descending Seattle Center
08:49PM 47.8725 -121.5040 287° West 288 331 12,600 -1,320 Descending Seattle Center
08:49PM 47.8803 -121.5420 271° West 288 331 12,200 -600 Descending Seattle Center
08:50PM 47.8811 -121.6250 284° West 288 331 12,000 -240 Descending Seattle Center
08:50PM 47.8867 -121.6590 250° West 293 337 12,000  Level Seattle Center
08:51PM 47.8689 -121.7330 227° Southwest 283 326 12,000  Level Seattle Center
08:51PM 47.8539 -121.7570 219° Southwest 270 311 12,000 -720 Level Seattle Center
08:52PM 47.8094 -121.8110 223° Southwest 281 323 11,300 -1,320 Descending Seattle Center
08:52PM 47.7881 -121.8410 254° West 273 314 10,700 -2,280 Descending Seattle Center
08:53PM 47.7767 -121.9020 279° West 268 308 9,000 -3,000 Descending Seattle Center
08:53PM 47.7819 -121.9490 284° West 264 304 7,700 -2,760 Descending Seattle Center
08:54PM 47.7931 -122.0170 295° West 268 308 6,200 -1,740 Descending Seattle Center
08:54PM 47.8050 -122.0550 284° West 252 290 6,000 -600 Descending Seattle Center
08:55PM 47.8161 -122.1200 295° West 251 289 5,600 -840 Descending Seattle Center
08:55PM 47.8258 -122.1510 284° West 252 290 5,200 -1,200 Descending Seattle Center
08:56PM 47.8369 -122.2170 300° West 244 281 4,400 -1,200 Descending Seattle Center
08:56PM 47.8489 -122.2480 285° West 252 290 4,000 -1,020 Descending Seattle Center
08:57PM 47.8600 -122.3110 301° West 243 280 3,400 -1,020 Descending Seattle Center
08:57PM 47.8700 -122.3360 281° West 241 277 3,000 -420 Descending Seattle Center
08:58PM 47.8772 -122.3890 282° West 208 239 3,000  Level Seattle Center
08:58PM 47.8808 -122.4140 232° Southwest 222 255 3,000  Level Seattle Center
08:59PM 47.8589 -122.4560 232° Southwest 180 207 3,000  Level Seattle Center
08:59PM 47.8525 -122.4680 190° South 184 212 3,000 -420 Level Seattle Center
09:00PM 47.8128 -122.4780 136° Southeast 177 204 2,600 -600 Descending Seattle Center
09:00PM 47.8086 -122.4720 181° South 143 165 2,400 -420 Descending Seattle Center
09:01PM 47.7650 -122.4730 147° Southeast 172 198 2,200 -240 Descending Seattle Center
09:01PM 47.7608 -122.4690 175° South 148 170 2,200  Level Seattle Center
09:02PM 47.7194 -122.4640 147° Southeast 171 197 2,200  Level Seattle Center
09:02PM 47.7133 -122.4580 154° Southeast 164 189 2,200  Level Seattle Center
09:03PM 47.6764 -122.4310 123° Southeast 177 204 2,200  Level Seattle Center
09:03PM 47.6725 -122.4220 158° South 169 194 2,200  Level Seattle Center
09:04PM 47.6333 -122.3980 128° Southeast 180 207 2,200 -240 Level Seattle Center
09:04PM 47.6233 -122.3790 155° Southeast 174 200 2,000 -900 Descending Seattle Center
09:05PM 47.5906 -122.3560 134° Southeast 164 189 1,300 -900 Descending Seattle Center
09:05PM 47.5847 -122.3470 155° Southeast 169 194 1,100 -900 Descending Seattle Center
09:06PM 47.5558 -122.3270 155° Southeast 149 171 400 -960 Descending Seattle Center